ENAN/ANX METAR and TAF weather

Enter ICAO airport designator
Station Type Date Time Source
ENAN METAR 2020/07/12 06:50 UTC NOAA

ENAN 120650Z AUTO 26002KT 9999 OVC039/// 11/08 Q1011


Station Type Date Time Source
ENAN Decoded METAR 2020/07/12 06:50 UTC NOAA

Andoya, Norway (ENAN) 69-18N 016-09E 14M
Jul 12, 2020 - 02:50 AM EDT / 2020.07.12 0650 UTC
Wind: from the W (260 degrees) at 2 MPH (2 KT):0
Visibility: greater than 7 mile(s):0
Sky conditions: overcast
Temperature: 51 F (11 C)
Dew Point: 46 F (8 C)
Relative Humidity: 81%
Pressure (altimeter): 29.85 in. Hg (1011 hPa)
ob: ENAN 120650Z AUTO 26002KT 9999 OVC039/// 11/08 Q1011
cycle: 7

Station Type Date Time Source
ENAN TAF 2020/07/12 06:57 UTC NOAA

TAF TAF ENAN 1206/1306 VRB05KT 9999 FEW025 BKN040
TEMPO 1206/1215 SHRA SCT025CB

Example: see airport list